sensor_id;sensor_type;location;lat;lon;timestamp;P1;durP1;ratioP1;P2;durP2;ratioP2
11604;SDS011;5858;43.076;25.626;2023-01-20T00:01:19;12.23;;;3.00;;
11604;SDS011;5858;43.076;25.626;2023-01-20T00:03:46;9.37;;;3.30;;
11604;SDS011;5858;43.076;25.626;2023-01-20T00:06:14;7.53;;;2.90;;
11604;SDS011;5858;43.076;25.626;2023-01-20T00:08:41;13.83;;;2.73;;
11604;SDS011;5858;43.076;25.626;2023-01-20T00:11:09;8.97;;;2.57;;
11604;SDS011;5858;43.076;25.626;2023-01-20T00:13:38;8.33;;;2.77;;
11604;SDS011;5858;43.076;25.626;2023-01-20T00:16:07;10.03;;;4.13;;
11604;SDS011;5858;43.076;25.626;2023-01-20T00:18:35;8.17;;;2.93;;
11604;SDS011;5858;43.076;25.626;2023-01-20T00:21:03;9.40;;;2.97;;
11604;SDS011;5858;43.076;25.626;2023-01-20T00:23:41;7.23;;;3.27;;
11604;SDS011;5858;43.076;25.626;2023-01-20T00:26:09;8.57;;;3.70;;
11604;SDS011;5858;43.076;25.626;2023-01-20T00:28:37;6.90;;;3.13;;
11604;SDS011;5858;43.076;25.626;2023-01-20T00:31:12;8.90;;;2.87;;
11604;SDS011;5858;43.076;25.626;2023-01-20T00:33:40;6.57;;;2.73;;
11604;SDS011;5858;43.076;25.626;2023-01-20T00:36:08;6.87;;;2.50;;
11604;SDS011;5858;43.076;25.626;2023-01-20T00:38:36;5.23;;;2.77;;
11604;SDS011;5858;43.076;25.626;2023-01-20T00:41:03;8.83;;;2.80;;
11604;SDS011;5858;43.076;25.626;2023-01-20T00:43:31;9.33;;;2.30;;
11604;SDS011;5858;43.076;25.626;2023-01-20T00:45:58;6.70;;;2.80;;
11604;SDS011;5858;43.076;25.626;2023-01-20T00:48:27;5.23;;;2.27;;
11604;SDS011;5858;43.076;25.626;2023-01-20T00:50:54;4.07;;;2.07;;
11604;SDS011;5858;43.076;25.626;2023-01-20T00:53:21;7.80;;;2.40;;
11604;SDS011;5858;43.076;25.626;2023-01-20T00:55:48;5.73;;;2.00;;
11604;SDS011;5858;43.076;25.626;2023-01-20T00:58:15;3.77;;;2.60;;
11604;SDS011;5858;43.076;25.626;2023-01-20T01:00:45;6.70;;;2.63;;
11604;SDS011;5858;43.076;25.626;2023-01-20T01:03:12;5.47;;;2.97;;
11604;SDS011;5858;43.076;25.626;2023-01-20T01:05:41;6.00;;;3.20;;
11604;SDS011;5858;43.076;25.626;2023-01-20T01:08:08;4.63;;;2.57;;
11604;SDS011;5858;43.076;25.626;2023-01-20T01:10:36;4.33;;;2.20;;
11604;SDS011;5858;43.076;25.626;2023-01-20T01:13:03;8.37;;;2.50;;
11604;SDS011;5858;43.076;25.626;2023-01-20T01:15:31;5.40;;;2.53;;
11604;SDS011;5858;43.076;25.626;2023-01-20T01:17:58;5.87;;;2.27;;
11604;SDS011;5858;43.076;25.626;2023-01-20T01:20:37;7.90;;;2.57;;
11604;SDS011;5858;43.076;25.626;2023-01-20T01:23:06;5.17;;;2.70;;
11604;SDS011;5858;43.076;25.626;2023-01-20T01:25:33;4.53;;;2.47;;
11604;SDS011;5858;43.076;25.626;2023-01-20T01:28:02;6.17;;;2.47;;
11604;SDS011;5858;43.076;25.626;2023-01-20T01:30:29;5.73;;;2.70;;
11604;SDS011;5858;43.076;25.626;2023-01-20T01:32:56;6.40;;;2.53;;
11604;SDS011;5858;43.076;25.626;2023-01-20T01:35:23;8.13;;;2.70;;
11604;SDS011;5858;43.076;25.626;2023-01-20T01:37:50;9.37;;;3.20;;
11604;SDS011;5858;43.076;25.626;2023-01-20T01:40:19;5.60;;;3.07;;
11604;SDS011;5858;43.076;25.626;2023-01-20T01:42:46;6.63;;;2.47;;
11604;SDS011;5858;43.076;25.626;2023-01-20T01:45:17;8.30;;;3.70;;
11604;SDS011;5858;43.076;25.626;2023-01-20T01:47:48;13.73;;;4.53;;
11604;SDS011;5858;43.076;25.626;2023-01-20T01:50:20;5.33;;;2.43;;
11604;SDS011;5858;43.076;25.626;2023-01-20T01:52:52;5.07;;;2.57;;
11604;SDS011;5858;43.076;25.626;2023-01-20T01:55:23;7.57;;;3.57;;
11604;SDS011;5858;43.076;25.626;2023-01-20T01:58:09;9.57;;;3.70;;
11604;SDS011;5858;43.076;25.626;2023-01-20T02:00:40;9.30;;;3.60;;
11604;SDS011;5858;43.076;25.626;2023-01-20T02:03:08;5.00;;;2.67;;
11604;SDS011;5858;43.076;25.626;2023-01-20T02:05:37;5.80;;;3.00;;
11604;SDS011;5858;43.076;25.626;2023-01-20T02:08:05;7.70;;;2.80;;
11604;SDS011;5858;43.076;25.626;2023-01-20T02:10:34;5.73;;;3.03;;
11604;SDS011;5858;43.076;25.626;2023-01-20T02:13:01;4.53;;;2.50;;
11604;SDS011;5858;43.076;25.626;2023-01-20T02:15:32;4.93;;;2.80;;
11604;SDS011;5858;43.076;25.626;2023-01-20T02:18:14;8.83;;;2.93;;
11604;SDS011;5858;43.076;25.626;2023-01-20T02:24:06;13.50;;;3.30;;
11604;SDS011;5858;43.076;25.626;2023-01-20T02:26:53;7.37;;;3.40;;
11604;SDS011;5858;43.076;25.626;2023-01-20T02:32:37;6.40;;;3.17;;
11604;SDS011;5858;43.076;25.626;2023-01-20T02:35:13;5.40;;;3.40;;
11604;SDS011;5858;43.076;25.626;2023-01-20T02:37:50;5.17;;;2.93;;
11604;SDS011;5858;43.076;25.626;2023-01-20T02:40:27;5.60;;;3.20;;
11604;SDS011;5858;43.076;25.626;2023-01-20T02:43:02;6.63;;;3.27;;
11604;SDS011;5858;43.076;25.626;2023-01-20T02:45:44;7.70;;;3.70;;
11604;SDS011;5858;43.076;25.626;2023-01-20T02:48:19;7.03;;;3.23;;
11604;SDS011;5858;43.076;25.626;2023-01-20T02:50:53;6.93;;;3.40;;
11604;SDS011;5858;43.076;25.626;2023-01-20T02:53:25;8.17;;;3.37;;
11604;SDS011;5858;43.076;25.626;2023-01-20T02:55:58;7.40;;;3.30;;
11604;SDS011;5858;43.076;25.626;2023-01-20T02:58:26;7.00;;;3.53;;
11604;SDS011;5858;43.076;25.626;2023-01-20T03:01:00;6.97;;;4.03;;
11604;SDS011;5858;43.076;25.626;2023-01-20T03:03:32;5.20;;;3.53;;
11604;SDS011;5858;43.076;25.626;2023-01-20T03:06:02;4.00;;;3.03;;
11604;SDS011;5858;43.076;25.626;2023-01-20T03:08:34;7.03;;;3.73;;
11604;SDS011;5858;43.076;25.626;2023-01-20T03:11:05;5.50;;;3.30;;
11604;SDS011;5858;43.076;25.626;2023-01-20T03:13:35;4.03;;;3.00;;
11604;SDS011;5858;43.076;25.626;2023-01-20T03:16:08;6.53;;;3.20;;
11604;SDS011;5858;43.076;25.626;2023-01-20T03:18:39;5.87;;;3.03;;
11604;SDS011;5858;43.076;25.626;2023-01-20T03:21:07;3.80;;;2.93;;
11604;SDS011;5858;43.076;25.626;2023-01-20T03:23:36;7.17;;;2.83;;
11604;SDS011;5858;43.076;25.626;2023-01-20T03:26:07;6.27;;;3.40;;
11604;SDS011;5858;43.076;25.626;2023-01-20T03:28:36;6.03;;;3.37;;
11604;SDS011;5858;43.076;25.626;2023-01-20T03:31:05;5.13;;;2.10;;
11604;SDS011;5858;43.076;25.626;2023-01-20T03:33:37;3.07;;;1.67;;
11604;SDS011;5858;43.076;25.626;2023-01-20T03:36:06;4.93;;;1.47;;
11604;SDS011;5858;43.076;25.626;2023-01-20T03:38:38;4.43;;;1.27;;
11604;SDS011;5858;43.076;25.626;2023-01-20T03:41:06;6.07;;;1.23;;
11604;SDS011;5858;43.076;25.626;2023-01-20T03:43:42;2.07;;;0.80;;
11604;SDS011;5858;43.076;25.626;2023-01-20T03:46:14;3.47;;;1.30;;
11604;SDS011;5858;43.076;25.626;2023-01-20T03:48:50;1.23;;;1.00;;
11604;SDS011;5858;43.076;25.626;2023-01-20T03:51:26;2.50;;;0.80;;
11604;SDS011;5858;43.076;25.626;2023-01-20T03:54:00;3.47;;;0.80;;
11604;SDS011;5858;43.076;25.626;2023-01-20T03:56:34;2.53;;;0.93;;
11604;SDS011;5858;43.076;25.626;2023-01-20T03:59:05;1.43;;;0.90;;
11604;SDS011;5858;43.076;25.626;2023-01-20T04:01:36;3.20;;;1.00;;
11604;SDS011;5858;43.076;25.626;2023-01-20T04:04:09;2.20;;;1.00;;
11604;SDS011;5858;43.076;25.626;2023-01-20T04:06:39;3.20;;;1.20;;
11604;SDS011;5858;43.076;25.626;2023-01-20T04:09:09;6.30;;;0.90;;
11604;SDS011;5858;43.076;25.626;2023-01-20T04:11:41;4.70;;;1.50;;
11604;SDS011;5858;43.076;25.626;2023-01-20T04:14:08;4.13;;;1.40;;
11604;SDS011;5858;43.076;25.626;2023-01-20T04:16:36;5.10;;;1.50;;
11604;SDS011;5858;43.076;25.626;2023-01-20T04:19:03;5.00;;;1.27;;
11604;SDS011;5858;43.076;25.626;2023-01-20T04:21:33;2.87;;;1.67;;
11604;SDS011;5858;43.076;25.626;2023-01-20T04:24:05;5.40;;;1.80;;
11604;SDS011;5858;43.076;25.626;2023-01-20T04:26:36;5.37;;;1.50;;
11604;SDS011;5858;43.076;25.626;2023-01-20T04:29:03;4.30;;;2.33;;
11604;SDS011;5858;43.076;25.626;2023-01-20T04:31:35;4.60;;;2.00;;
11604;SDS011;5858;43.076;25.626;2023-01-20T04:34:04;4.50;;;1.53;;
11604;SDS011;5858;43.076;25.626;2023-01-20T04:36:33;3.30;;;1.40;;
11604;SDS011;5858;43.076;25.626;2023-01-20T04:39:00;11.67;;;5.27;;
11604;SDS011;5858;43.076;25.626;2023-01-20T04:41:27;6.50;;;3.37;;
11604;SDS011;5858;43.076;25.626;2023-01-20T04:43:54;8.00;;;2.07;;
11604;SDS011;5858;43.076;25.626;2023-01-20T04:46:21;8.60;;;2.50;;
11604;SDS011;5858;43.076;25.626;2023-01-20T04:48:48;8.67;;;2.80;;
11604;SDS011;5858;43.076;25.626;2023-01-20T04:51:16;6.73;;;2.70;;
11604;SDS011;5858;43.076;25.626;2023-01-20T04:53:44;6.27;;;1.70;;
11604;SDS011;5858;43.076;25.626;2023-01-20T04:56:11;5.40;;;2.20;;
11604;SDS011;5858;43.076;25.626;2023-01-20T04:58:39;2.93;;;1.80;;
11604;SDS011;5858;43.076;25.626;2023-01-20T05:01:08;5.10;;;2.20;;
11604;SDS011;5858;43.076;25.626;2023-01-20T05:03:40;6.00;;;2.47;;
11604;SDS011;5858;43.076;25.626;2023-01-20T05:06:10;6.30;;;3.27;;
11604;SDS011;5858;43.076;25.626;2023-01-20T05:08:37;16.63;;;7.57;;
11604;SDS011;5858;43.076;25.626;2023-01-20T05:11:06;8.90;;;2.77;;
11604;SDS011;5858;43.076;25.626;2023-01-20T05:13:34;4.23;;;2.27;;
11604;SDS011;5858;43.076;25.626;2023-01-20T05:16:03;4.13;;;1.60;;
11604;SDS011;5858;43.076;25.626;2023-01-20T05:18:31;4.60;;;2.90;;
11604;SDS011;5858;43.076;25.626;2023-01-20T05:20:58;8.60;;;2.90;;
11604;SDS011;5858;43.076;25.626;2023-01-20T05:23:25;4.70;;;2.93;;
11604;SDS011;5858;43.076;25.626;2023-01-20T05:25:52;43.97;;;17.50;;
11604;SDS011;5858;43.076;25.626;2023-01-20T05:28:21;14.47;;;5.77;;
11604;SDS011;5858;43.076;25.626;2023-01-20T05:30:48;7.20;;;4.00;;
11604;SDS011;5858;43.076;25.626;2023-01-20T05:33:16;7.80;;;3.50;;
11604;SDS011;5858;43.076;25.626;2023-01-20T05:35:43;11.10;;;3.83;;
11604;SDS011;5858;43.076;25.626;2023-01-20T05:38:10;10.43;;;4.60;;
11604;SDS011;5858;43.076;25.626;2023-01-20T05:40:37;5.80;;;3.50;;
11604;SDS011;5858;43.076;25.626;2023-01-20T05:43:04;6.23;;;4.07;;
11604;SDS011;5858;43.076;25.626;2023-01-20T05:45:33;7.63;;;4.40;;
11604;SDS011;5858;43.076;25.626;2023-01-20T05:48:00;13.07;;;4.47;;
11604;SDS011;5858;43.076;25.626;2023-01-20T05:50:30;8.90;;;5.20;;
11604;SDS011;5858;43.076;25.626;2023-01-20T05:52:57;14.37;;;6.20;;
11604;SDS011;5858;43.076;25.626;2023-01-20T05:55:25;11.17;;;5.30;;
11604;SDS011;5858;43.076;25.626;2023-01-20T05:58:05;8.00;;;4.53;;
11604;SDS011;5858;43.076;25.626;2023-01-20T06:00:38;6.80;;;4.67;;
11604;SDS011;5858;43.076;25.626;2023-01-20T06:03:05;8.80;;;4.40;;
11604;SDS011;5858;43.076;25.626;2023-01-20T06:05:32;10.53;;;5.17;;
11604;SDS011;5858;43.076;25.626;2023-01-20T06:07:59;12.27;;;4.60;;
11604;SDS011;5858;43.076;25.626;2023-01-20T06:10:27;7.37;;;4.70;;
11604;SDS011;5858;43.076;25.626;2023-01-20T06:13:00;8.47;;;4.87;;
11604;SDS011;5858;43.076;25.626;2023-01-20T06:15:30;6.50;;;4.93;;
11604;SDS011;5858;43.076;25.626;2023-01-20T06:17:59;8.83;;;4.43;;
11604;SDS011;5858;43.076;25.626;2023-01-20T06:20:37;7.13;;;5.03;;
11604;SDS011;5858;43.076;25.626;2023-01-20T06:23:05;6.83;;;4.27;;
11604;SDS011;5858;43.076;25.626;2023-01-20T06:25:37;8.67;;;5.00;;
11604;SDS011;5858;43.076;25.626;2023-01-20T06:28:06;5.97;;;4.10;;
11604;SDS011;5858;43.076;25.626;2023-01-20T06:30:36;8.30;;;4.37;;
11604;SDS011;5858;43.076;25.626;2023-01-20T06:33:08;9.17;;;4.63;;
11604;SDS011;5858;43.076;25.626;2023-01-20T06:35:37;6.60;;;4.73;;
11604;SDS011;5858;43.076;25.626;2023-01-20T06:38:07;9.00;;;4.67;;
11604;SDS011;5858;43.076;25.626;2023-01-20T06:40:34;13.60;;;4.60;;
11604;SDS011;5858;43.076;25.626;2023-01-20T06:43:07;11.80;;;4.43;;
11604;SDS011;5858;43.076;25.626;2023-01-20T06:46:22;6.23;;;4.10;;
11604;SDS011;5858;43.076;25.626;2023-01-20T06:49:17;10.37;;;4.60;;
11604;SDS011;5858;43.076;25.626;2023-01-20T06:51:44;8.43;;;4.37;;
11604;SDS011;5858;43.076;25.626;2023-01-20T06:54:24;5.33;;;4.13;;
11604;SDS011;5858;43.076;25.626;2023-01-20T06:56:55;9.53;;;4.00;;
11604;SDS011;5858;43.076;25.626;2023-01-20T06:59:22;6.07;;;4.13;;
11604;SDS011;5858;43.076;25.626;2023-01-20T07:01:49;6.97;;;3.90;;
11604;SDS011;5858;43.076;25.626;2023-01-20T07:04:20;5.67;;;3.63;;
11604;SDS011;5858;43.076;25.626;2023-01-20T07:06:47;8.63;;;4.07;;
11604;SDS011;5858;43.076;25.626;2023-01-20T07:09:15;8.70;;;4.50;;
11604;SDS011;5858;43.076;25.626;2023-01-20T07:11:42;7.43;;;3.37;;
11604;SDS011;5858;43.076;25.626;2023-01-20T07:14:09;4.43;;;2.90;;
11604;SDS011;5858;43.076;25.626;2023-01-20T07:16:36;6.67;;;3.30;;
11604;SDS011;5858;43.076;25.626;2023-01-20T07:19:04;5.20;;;3.07;;
11604;SDS011;5858;43.076;25.626;2023-01-20T07:21:33;8.93;;;3.17;;
11604;SDS011;5858;43.076;25.626;2023-01-20T07:24:02;9.07;;;3.40;;
11604;SDS011;5858;43.076;25.626;2023-01-20T07:26:30;4.43;;;2.27;;
11604;SDS011;5858;43.076;25.626;2023-01-20T07:28:58;4.37;;;2.30;;
11604;SDS011;5858;43.076;25.626;2023-01-20T07:31:25;6.23;;;2.30;;
11604;SDS011;5858;43.076;25.626;2023-01-20T07:33:58;6.60;;;3.33;;
11604;SDS011;5858;43.076;25.626;2023-01-20T07:36:25;3.70;;;2.67;;
11604;SDS011;5858;43.076;25.626;2023-01-20T07:38:55;4.07;;;2.10;;
11604;SDS011;5858;43.076;25.626;2023-01-20T07:41:30;6.10;;;3.00;;
11604;SDS011;5858;43.076;25.626;2023-01-20T07:43:58;5.00;;;2.90;;
11604;SDS011;5858;43.076;25.626;2023-01-20T07:46:25;4.97;;;4.07;;
11604;SDS011;5858;43.076;25.626;2023-01-20T07:48:52;6.40;;;3.57;;
11604;SDS011;5858;43.076;25.626;2023-01-20T07:51:21;7.67;;;4.73;;
11604;SDS011;5858;43.076;25.626;2023-01-20T07:53:48;12.57;;;7.10;;
11604;SDS011;5858;43.076;25.626;2023-01-20T07:56:18;7.90;;;4.23;;
11604;SDS011;5858;43.076;25.626;2023-01-20T07:58:48;6.20;;;3.83;;
11604;SDS011;5858;43.076;25.626;2023-01-20T08:01:16;6.60;;;3.90;;
11604;SDS011;5858;43.076;25.626;2023-01-20T08:03:57;6.07;;;2.80;;
11604;SDS011;5858;43.076;25.626;2023-01-20T08:06:25;6.67;;;3.57;;
11604;SDS011;5858;43.076;25.626;2023-01-20T08:08:53;6.30;;;3.73;;
11604;SDS011;5858;43.076;25.626;2023-01-20T08:11:28;6.17;;;2.80;;
11604;SDS011;5858;43.076;25.626;2023-01-20T08:14:01;6.87;;;3.97;;
11604;SDS011;5858;43.076;25.626;2023-01-20T08:16:28;5.77;;;4.03;;
11604;SDS011;5858;43.076;25.626;2023-01-20T08:18:55;10.57;;;4.40;;
11604;SDS011;5858;43.076;25.626;2023-01-20T08:21:23;6.43;;;3.53;;
11604;SDS011;5858;43.076;25.626;2023-01-20T08:23:53;7.73;;;2.90;;
11604;SDS011;5858;43.076;25.626;2023-01-20T08:26:21;6.07;;;3.00;;
11604;SDS011;5858;43.076;25.626;2023-01-20T08:28:50;4.27;;;3.20;;
11604;SDS011;5858;43.076;25.626;2023-01-20T08:31:21;5.33;;;3.43;;
11604;SDS011;5858;43.076;25.626;2023-01-20T08:33:50;5.47;;;3.20;;
11604;SDS011;5858;43.076;25.626;2023-01-20T08:36:19;6.47;;;2.53;;
11604;SDS011;5858;43.076;25.626;2023-01-20T08:38:50;3.13;;;2.83;;
11604;SDS011;5858;43.076;25.626;2023-01-20T08:41:22;3.78;;;2.63;;
11604;SDS011;5858;43.076;25.626;2023-01-20T08:43:52;5.88;;;3.40;;
11604;SDS011;5858;43.076;25.626;2023-01-20T08:46:20;5.77;;;3.40;;
11604;SDS011;5858;43.076;25.626;2023-01-20T08:48:49;5.83;;;3.10;;
11604;SDS011;5858;43.076;25.626;2023-01-20T08:51:17;5.28;;;3.28;;
11604;SDS011;5858;43.076;25.626;2023-01-20T08:53:48;6.70;;;3.80;;
11604;SDS011;5858;43.076;25.626;2023-01-20T08:56:16;6.97;;;3.70;;
11604;SDS011;5858;43.076;25.626;2023-01-20T08:58:45;6.73;;;3.50;;
11604;SDS011;5858;43.076;25.626;2023-01-20T09:01:16;5.55;;;3.50;;
11604;SDS011;5858;43.076;25.626;2023-01-20T09:03:45;5.63;;;3.87;;
11604;SDS011;5858;43.076;25.626;2023-01-20T09:06:13;4.70;;;3.67;;
11604;SDS011;5858;43.076;25.626;2023-01-20T09:08:40;3.53;;;3.03;;
11604;SDS011;5858;43.076;25.626;2023-01-20T09:11:09;5.43;;;2.57;;
11604;SDS011;5858;43.076;25.626;2023-01-20T09:13:37;3.55;;;2.25;;
11604;SDS011;5858;43.076;25.626;2023-01-20T09:16:07;5.60;;;2.40;;
11604;SDS011;5858;43.076;25.626;2023-01-20T09:18:38;4.82;;;2.22;;
11604;SDS011;5858;43.076;25.626;2023-01-20T09:21:06;4.63;;;1.95;;
11604;SDS011;5858;43.076;25.626;2023-01-20T09:23:33;5.07;;;2.58;;
11604;SDS011;5858;43.076;25.626;2023-01-20T09:26:02;4.97;;;2.15;;
11604;SDS011;5858;43.076;25.626;2023-01-20T09:28:30;5.05;;;2.20;;
11604;SDS011;5858;43.076;25.626;2023-01-20T09:30:57;3.00;;;1.80;;
11604;SDS011;5858;43.076;25.626;2023-01-20T09:33:24;4.15;;;2.03;;
11604;SDS011;5858;43.076;25.626;2023-01-20T09:36:04;5.05;;;2.10;;
11604;SDS011;5858;43.076;25.626;2023-01-20T09:38:33;4.93;;;1.80;;
11604;SDS011;5858;43.076;25.626;2023-01-20T09:41:21;4.95;;;2.08;;
11604;SDS011;5858;43.076;25.626;2023-01-20T09:44:20;3.80;;;2.63;;
11604;SDS011;5858;43.076;25.626;2023-01-20T09:47:03;7.57;;;3.00;;
11604;SDS011;5858;43.076;25.626;2023-01-20T09:50:01;6.57;;;2.60;;
11604;SDS011;5858;43.076;25.626;2023-01-20T09:53:14;3.33;;;2.03;;
11604;SDS011;5858;43.076;25.626;2023-01-20T09:55:55;6.53;;;3.50;;
11604;SDS011;5858;43.076;25.626;2023-01-20T09:58:26;2.77;;;2.40;;
11604;SDS011;5858;43.076;25.626;2023-01-20T10:01:03;3.30;;;2.10;;
11604;SDS011;5858;43.076;25.626;2023-01-20T10:06:41;4.57;;;1.80;;
11604;SDS011;5858;43.076;25.626;2023-01-20T10:38:13;4.57;;;2.80;;
11604;SDS011;5858;43.076;25.626;2023-01-20T10:40:46;6.60;;;3.20;;
11604;SDS011;5858;43.076;25.626;2023-01-20T10:43:22;11.23;;;6.90;;
11604;SDS011;5858;43.076;25.626;2023-01-20T10:45:53;6.13;;;3.30;;
11604;SDS011;5858;43.076;25.626;2023-01-20T10:48:37;2.83;;;2.10;;
11604;SDS011;5858;43.076;25.626;2023-01-20T10:51:17;5.03;;;2.13;;
11604;SDS011;5858;43.076;25.626;2023-01-20T10:54:10;3.43;;;1.83;;
11604;SDS011;5858;43.076;25.626;2023-01-20T10:56:47;1.23;;;0.90;;
11604;SDS011;5858;43.076;25.626;2023-01-20T10:59:21;2.57;;;1.27;;
11604;SDS011;5858;43.076;25.626;2023-01-20T11:01:53;1.80;;;1.27;;
11604;SDS011;5858;43.076;25.626;2023-01-20T11:04:25;4.10;;;1.13;;
11604;SDS011;5858;43.076;25.626;2023-01-20T11:06:53;1.67;;;1.27;;
11604;SDS011;5858;43.076;25.626;2023-01-20T11:09:28;1.20;;;1.10;;
11604;SDS011;5858;43.076;25.626;2023-01-20T11:11:59;3.10;;;1.40;;
11604;SDS011;5858;43.076;25.626;2023-01-20T11:14:28;6.17;;;3.17;;
11604;SDS011;5858;43.076;25.626;2023-01-20T11:16:58;6.63;;;2.37;;
11604;SDS011;5858;43.076;25.626;2023-01-20T11:19:42;3.10;;;1.97;;
11604;SDS011;5858;43.076;25.626;2023-01-20T11:22:13;4.43;;;2.50;;
11604;SDS011;5858;43.076;25.626;2023-01-20T11:24:46;3.60;;;1.80;;
11604;SDS011;5858;43.076;25.626;2023-01-20T11:27:14;1.40;;;1.07;;
11604;SDS011;5858;43.076;25.626;2023-01-20T11:29:45;2.77;;;1.20;;
11604;SDS011;5858;43.076;25.626;2023-01-20T11:32:23;2.30;;;1.07;;
11604;SDS011;5858;43.076;25.626;2023-01-20T11:34:55;1.27;;;1.00;;
11604;SDS011;5858;43.076;25.626;2023-01-20T11:37:22;2.47;;;1.40;;
11604;SDS011;5858;43.076;25.626;2023-01-20T11:40:02;1.23;;;1.10;;
11604;SDS011;5858;43.076;25.626;2023-01-20T11:42:48;1.40;;;0.97;;
11604;SDS011;5858;43.076;25.626;2023-01-20T11:45:24;1.30;;;0.90;;
11604;SDS011;5858;43.076;25.626;2023-01-20T11:48:01;3.67;;;2.87;;
11604;SDS011;5858;43.076;25.626;2023-01-20T11:50:34;0.70;;;0.53;;
11604;SDS011;5858;43.076;25.626;2023-01-20T11:53:16;1.37;;;0.80;;
11604;SDS011;5858;43.076;25.626;2023-01-20T11:55:54;1.00;;;0.90;;
11604;SDS011;5858;43.076;25.626;2023-01-20T11:58:24;1.47;;;0.80;;
11604;SDS011;5858;43.076;25.626;2023-01-20T12:00:57;1.93;;;0.60;;
11604;SDS011;5858;43.076;25.626;2023-01-20T12:06:32;2.00;;;1.27;;
11604;SDS011;5858;43.076;25.626;2023-01-20T12:09:09;1.33;;;0.90;;
11604;SDS011;5858;43.076;25.626;2023-01-20T12:11:44;1.33;;;1.03;;
11604;SDS011;5858;43.076;25.626;2023-01-20T12:14:23;1.60;;;0.87;;
11604;SDS011;5858;43.076;25.626;2023-01-20T12:17:06;1.63;;;0.80;;
11604;SDS011;5858;43.076;25.626;2023-01-20T12:19:46;0.90;;;0.90;;
11604;SDS011;5858;43.076;25.626;2023-01-20T12:22:23;2.00;;;0.90;;
11604;SDS011;5858;43.076;25.626;2023-01-20T12:24:54;1.87;;;1.30;;
11604;SDS011;5858;43.076;25.626;2023-01-20T12:27:39;4.13;;;1.30;;
11604;SDS011;5858;43.076;25.626;2023-01-20T12:30:14;1.17;;;0.73;;
11604;SDS011;5858;43.076;25.626;2023-01-20T12:33:04;2.27;;;1.10;;
11604;SDS011;5858;43.076;25.626;2023-01-20T12:35:57;1.77;;;1.07;;
11604;SDS011;5858;43.076;25.626;2023-01-20T12:38:36;2.93;;;1.30;;
11604;SDS011;5858;43.076;25.626;2023-01-20T12:41:27;2.00;;;1.20;;
11604;SDS011;5858;43.076;25.626;2023-01-20T12:44:09;2.30;;;1.20;;
11604;SDS011;5858;43.076;25.626;2023-01-20T12:46:46;1.27;;;0.80;;
11604;SDS011;5858;43.076;25.626;2023-01-20T12:49:34;2.23;;;0.90;;
11604;SDS011;5858;43.076;25.626;2023-01-20T12:52:14;2.87;;;1.00;;
11604;SDS011;5858;43.076;25.626;2023-01-20T12:57:54;1.17;;;0.83;;
11604;SDS011;5858;43.076;25.626;2023-01-20T13:00:41;1.43;;;0.80;;
11604;SDS011;5858;43.076;25.626;2023-01-20T13:03:25;2.73;;;1.03;;
11604;SDS011;5858;43.076;25.626;2023-01-20T13:09:23;3.20;;;1.30;;
11604;SDS011;5858;43.076;25.626;2023-01-20T13:12:13;2.40;;;0.90;;
11604;SDS011;5858;43.076;25.626;2023-01-20T13:15:20;1.17;;;1.03;;
11604;SDS011;5858;43.076;25.626;2023-01-20T13:20:49;0.87;;;0.67;;
11604;SDS011;5858;43.076;25.626;2023-01-20T13:23:19;0.70;;;0.60;;
11604;SDS011;5858;43.076;25.626;2023-01-20T13:25:50;1.10;;;0.70;;
11604;SDS011;5858;43.076;25.626;2023-01-20T13:28:30;3.97;;;1.63;;
11604;SDS011;5858;43.076;25.626;2023-01-20T13:30:58;2.30;;;0.70;;
11604;SDS011;5858;43.076;25.626;2023-01-20T13:33:32;3.30;;;1.70;;
11604;SDS011;5858;43.076;25.626;2023-01-20T13:36:11;3.33;;;1.10;;
11604;SDS011;5858;43.076;25.626;2023-01-20T13:38:40;0.53;;;0.50;;
11604;SDS011;5858;43.076;25.626;2023-01-20T13:41:09;0.80;;;0.60;;
11604;SDS011;5858;43.076;25.626;2023-01-20T13:46:42;3.47;;;1.50;;
11604;SDS011;5858;43.076;25.626;2023-01-20T13:49:21;1.33;;;0.50;;
11604;SDS011;5858;43.076;25.626;2023-01-20T13:51:50;1.83;;;0.90;;
11604;SDS011;5858;43.076;25.626;2023-01-20T14:00:11;4.47;;;1.07;;
11604;SDS011;5858;43.076;25.626;2023-01-20T14:02:41;1.23;;;0.80;;
11604;SDS011;5858;43.076;25.626;2023-01-20T14:05:29;2.43;;;0.80;;
11604;SDS011;5858;43.076;25.626;2023-01-20T14:07:57;1.50;;;0.60;;
11604;SDS011;5858;43.076;25.626;2023-01-20T14:10:25;0.60;;;0.50;;
11604;SDS011;5858;43.076;25.626;2023-01-20T14:12:52;1.37;;;0.70;;
11604;SDS011;5858;43.076;25.626;2023-01-20T14:15:27;2.07;;;0.70;;
11604;SDS011;5858;43.076;25.626;2023-01-20T14:17:57;5.37;;;0.90;;
11604;SDS011;5858;43.076;25.626;2023-01-20T14:20:25;1.77;;;1.00;;
11604;SDS011;5858;43.076;25.626;2023-01-20T14:22:55;0.97;;;0.90;;
11604;SDS011;5858;43.076;25.626;2023-01-20T14:25:37;3.60;;;0.80;;
11604;SDS011;5858;43.076;25.626;2023-01-20T14:28:14;2.60;;;0.80;;
11604;SDS011;5858;43.076;25.626;2023-01-20T14:30:44;2.13;;;0.70;;
11604;SDS011;5858;43.076;25.626;2023-01-20T14:33:12;2.50;;;1.73;;
11604;SDS011;5858;43.076;25.626;2023-01-20T14:35:41;2.40;;;0.77;;
11604;SDS011;5858;43.076;25.626;2023-01-20T14:38:16;1.67;;;1.17;;
11604;SDS011;5858;43.076;25.626;2023-01-20T14:40:46;2.03;;;0.87;;
11604;SDS011;5858;43.076;25.626;2023-01-20T14:43:16;2.93;;;0.67;;
11604;SDS011;5858;43.076;25.626;2023-01-20T14:45:45;3.10;;;0.90;;
11604;SDS011;5858;43.076;25.626;2023-01-20T14:48:15;2.00;;;0.73;;
11604;SDS011;5858;43.076;25.626;2023-01-20T14:50:44;2.53;;;0.60;;
11604;SDS011;5858;43.076;25.626;2023-01-20T14:53:18;3.80;;;0.60;;
11604;SDS011;5858;43.076;25.626;2023-01-20T14:55:55;5.27;;;0.80;;
11604;SDS011;5858;43.076;25.626;2023-01-20T14:58:25;1.50;;;0.50;;
11604;SDS011;5858;43.076;25.626;2023-01-20T15:00:54;1.50;;;0.80;;
11604;SDS011;5858;43.076;25.626;2023-01-20T15:03:26;2.87;;;0.53;;
11604;SDS011;5858;43.076;25.626;2023-01-20T15:05:57;5.67;;;0.87;;
11604;SDS011;5858;43.076;25.626;2023-01-20T15:08:42;1.17;;;0.80;;
11604;SDS011;5858;43.076;25.626;2023-01-20T15:11:23;2.17;;;0.70;;
11604;SDS011;5858;43.076;25.626;2023-01-20T15:14:05;1.40;;;1.10;;
11604;SDS011;5858;43.076;25.626;2023-01-20T15:16:46;1.40;;;0.60;;
11604;SDS011;5858;43.076;25.626;2023-01-20T15:22:24;1.10;;;0.40;;
11604;SDS011;5858;43.076;25.626;2023-01-20T15:24:54;5.60;;;0.60;;
11604;SDS011;5858;43.076;25.626;2023-01-20T15:27:28;1.27;;;0.50;;
11604;SDS011;5858;43.076;25.626;2023-01-20T15:30:02;1.63;;;0.50;;
11604;SDS011;5858;43.076;25.626;2023-01-20T15:32:39;5.23;;;1.03;;
11604;SDS011;5858;43.076;25.626;2023-01-20T15:35:10;2.40;;;0.80;;
11604;SDS011;5858;43.076;25.626;2023-01-20T15:37:38;2.50;;;0.90;;
11604;SDS011;5858;43.076;25.626;2023-01-20T15:40:11;4.73;;;0.90;;
11604;SDS011;5858;43.076;25.626;2023-01-20T15:42:39;2.93;;;1.33;;
11604;SDS011;5858;43.076;25.626;2023-01-20T15:45:10;2.57;;;0.60;;
11604;SDS011;5858;43.076;25.626;2023-01-20T15:47:38;0.30;;;0.30;;
11604;SDS011;5858;43.076;25.626;2023-01-20T15:50:10;0.30;;;0.30;;
11604;SDS011;5858;43.076;25.626;2023-01-20T15:52:39;3.70;;;1.60;;
11604;SDS011;5858;43.076;25.626;2023-01-20T15:55:06;1.03;;;0.63;;
11604;SDS011;5858;43.076;25.626;2023-01-20T15:57:38;0.60;;;0.60;;
11604;SDS011;5858;43.076;25.626;2023-01-20T16:00:05;2.33;;;0.80;;
11604;SDS011;5858;43.076;25.626;2023-01-20T16:02:40;1.53;;;0.67;;
11604;SDS011;5858;43.076;25.626;2023-01-20T16:05:07;2.83;;;0.80;;
11604;SDS011;5858;43.076;25.626;2023-01-20T16:07:35;2.63;;;1.50;;
11604;SDS011;5858;43.076;25.626;2023-01-20T16:10:04;4.93;;;2.20;;
11604;SDS011;5858;43.076;25.626;2023-01-20T16:12:32;3.00;;;1.90;;
11604;SDS011;5858;43.076;25.626;2023-01-20T16:15:00;7.40;;;1.67;;
11604;SDS011;5858;43.076;25.626;2023-01-20T16:17:28;2.30;;;1.70;;
11604;SDS011;5858;43.076;25.626;2023-01-20T16:19:56;3.60;;;2.10;;